Wetterdaten: Woche 26.04.10 - 02.05.10 (KW17)
Datum Zeit Temp. Innen Temp. Aussen UV X Diff Temp. Feuchte Inne Feuchte Auss Sonnenschein Luftdruck Regen ab 0,1 Wind Sonnenschein Windben
26.04.2010 00:00 20,0 C 14,0 C 0,0 UV-I 0,0 C 44 % 79 % 0 % 1023,7 hPa 2,8 l/m 1,5 km/h (1 Bft) 0,00 h 3,5 km/h (1 Bft)
26.04.2010 01:00 19,8 C 13,1 C 0,0 UV-I 0,0 C 46 % 85 % 0 % 1023,4 hPa 0,1 l/m 0,7 km/h (0 Bft) 0,00 h 1,4 km/h (1 Bft)
26.04.2010 02:00 19,7 C 12,7 C 0,0 UV-I 0,0 C 47 % 87 % 0 % 1023,0 hPa 0,0 l/m 0,2 km/h (0 Bft) 0,00 h 0,7 km/h (0 Bft)
26.04.2010 03:00 19,5 C 12,3 C 0,0 UV-I 0,0 C 49 % 88 % 0 % 1023,0 hPa 0,0 l/m 0,6 km/h (0 Bft) 0,00 h 1,5 km/h (1 Bft)
26.04.2010 04:00 19,2 C 11,3 C 0,0 UV-I 0,0 C 50 % 89 % 0 % 1023,1 hPa 0,0 l/m 0,1 km/h (0 Bft) 0,00 h 0,3 km/h (0 Bft)
26.04.2010 05:00 18,9 C 10,4 C 0,0 UV-I 0,0 C 50 % 88 % 0 % 1023,2 hPa 0,0 l/m 0,3 km/h (0 Bft) 0,00 h 0,3 km/h (0 Bft)
26.04.2010 06:00 18,7 C 9,5 C 0,0 UV-I 0,0 C 50 % 89 % 0 % 1023,1 hPa 0,0 l/m 0,4 km/h (0 Bft) 0,00 h 0,4 km/h (0 Bft)
26.04.2010 07:00 18,5 C 9,5 C 0,0 UV-I 0,1 C 51 % 90 % 2 % 1023,6 hPa 0,0 l/m 1,8 km/h (1 Bft) 0,00 h 2,5 km/h (1 Bft)
26.04.2010 08:00 18,6 C 10,4 C 0,4 UV-I 0,7 C 51 % 90 % 21 % 1024,3 hPa 0,0 l/m 3,9 km/h (1 Bft) 0,00 h 7,8 km/h (2 Bft)
26.04.2010 09:00 18,8 C 11,3 C 1,0 UV-I 1,2 C 51 % 88 % 34 % 1024,5 hPa 0,0 l/m 5,4 km/h (1 Bft) 0,00 h 10,2 km/h (2 Bft)
26.04.2010 10:00 19,1 C 12,3 C 1,1 UV-I 1,2 C 51 % 86 % 33 % 1025,0 hPa 0,0 l/m 6,5 km/h (2 Bft) 0,00 h 11,6 km/h (2 Bft)
26.04.2010 11:00 19,3 C 13,1 C 1,9 UV-I 1,6 C 51 % 83 % 46 % 1025,3 hPa 0,0 l/m 6,1 km/h (2 Bft) 0,00 h 8,8 km/h (2 Bft)
26.04.2010 12:00 19,6 C 14,4 C 2,1 UV-I 2,1 C 50 % 80 % 60 % 1025,8 hPa 0,0 l/m 5,7 km/h (1 Bft) 0,03 h 8,2 km/h (2 Bft)
26.04.2010 13:00 20,1 C 16,4 C 6,3 UV-I 4,2 C 50 % 71 % 92 % 1026,0 hPa 0,0 l/m 9,1 km/h (2 Bft) 0,70 h 12,6 km/h (3 Bft)
26.04.2010 14:00 21,0 C 18,4 C 9,3 UV-I 4,6 C 48 % 59 % 99 % 1027,9 hPa 0,0 l/m 9,3 km/h (2 Bft) 0,97 h 13,0 km/h (3 Bft)
26.04.2010 15:00 22,1 C 19,4 C 6,1 UV-I 2,6 C 45 % 54 % 65 % 1028,1 hPa 0,0 l/m 7,9 km/h (2 Bft) 0,47 h 11,8 km/h (2 Bft)
26.04.2010 16:00 22,0 C 18,5 C 2,4 UV-I 0,5 C 44 % 55 % 15 % 1027,1 hPa 0,0 l/m 8,1 km/h (2 Bft) 0,07 h 10,2 km/h (2 Bft)
26.04.2010 17:00 21,9 C 18,3 C 3,3 UV-I 2,2 C 44 % 56 % 64 % 1027,1 hPa 0,0 l/m 8,4 km/h (2 Bft) 0,23 h 11,0 km/h (2 Bft)
26.04.2010 18:00 21,7 C 17,8 C 0,7 UV-I 0,2 C 44 % 56 % 5 % 1026,7 hPa 0,0 l/m 7,5 km/h (2 Bft) 0,00 h 12,7 km/h (3 Bft)
26.04.2010 19:00 21,4 C 17,0 C 0,4 UV-I 0,0 C 44 % 56 % 1 % 1026,6 hPa 0,0 l/m 7,3 km/h (2 Bft) 0,00 h 9,2 km/h (2 Bft)
26.04.2010 20:00 20,7 C 15,8 C 0,0 UV-I 0,0 C 45 % 60 % 0 % 1026,5 hPa 0,0 l/m 2,9 km/h (1 Bft) 0,00 h 3,3 km/h (1 Bft)
26.04.2010 21:00 20,2 C 14,2 C 0,0 UV-I 0,0 C 46 % 65 % 0 % 1027,1 hPa 0,0 l/m 0,7 km/h (0 Bft) 0,00 h 0,7 km/h (0 Bft)
26.04.2010 22:00 19,8 C 12,6 C 0,0 UV-I 0,0 C 47 % 70 % 0 % 1027,5 hPa 0,0 l/m 0,1 km/h (0 Bft) 0,00 h 0,3 km/h (0 Bft)
26.04.2010 23:00 19,3 C 11,1 C 0,0 UV-I 0,0 C 48 % 75 % 0 % 1027,4 hPa 0,0 l/m 0,1 km/h (0 Bft) 0,00 h 0,1 km/h (0 Bft)
27.04.2010 00:00 19,0 C 9,8 C 0,0 UV-I 0,0 C 49 % 79 % 0 % 1027,8 hPa 0,0 l/m 0,0 km/h (0 Bft) 0,00 h 0,0 km/h (0 Bft)
27.04.2010 01:00 18,7 C 8,7 C 0,0 UV-I 0,0 C 50 % 83 % 0 % 1027,9 hPa 0,0 l/m 0,0 km/h (0 Bft) 0,00 h 0,0 km/h (0 Bft)
27.04.2010 02:00 18,5 C 7,8 C 0,0 UV-I 0,0 C 50 % 86 % 0 % 1027,8 hPa 0,0 l/m 0,0 km/h (0 Bft) 0,00 h 0,0 km/h (0 Bft)
27.04.2010 03:00 18,3 C 7,1 C 0,0 UV-I 0,0 C 50 % 88 % 0 % 1027,3 hPa 0,0 l/m 0,0 km/h (0 Bft) 0,00 h 0,0 km/h (0 Bft)
27.04.2010 04:00 18,2 C 6,7 C 0,0 UV-I 0,0 C 50 % 89 % 0 % 1027,8 hPa 0,0 l/m 0,0 km/h (0 Bft) 0,00 h 0,0 km/h (0 Bft)
27.04.2010 05:00 18,1 C 6,6 C 0,0 UV-I 0,0 C 50 % 90 % 0 % 1027,9 hPa 0,0 l/m 0,0 km/h (0 Bft) 0,00 h 0,0 km/h (0 Bft)
27.04.2010 06:00 18,0 C 6,2 C 0,0 UV-I 0,0 C 50 % 90 % 0 % 1027,8 hPa 0,0 l/m 0,0 km/h (0 Bft) 0,00 h 0,0 km/h (0 Bft)
27.04.2010 07:00 17,8 C 6,7 C 0,0 UV-I 0,3 C 51 % 92 % 8 % 1028,0 hPa 0,0 l/m 0,1 km/h (0 Bft) 0,00 h 0,2 km/h (0 Bft)
27.04.2010 08:00 17,9 C 8,4 C 0,3 UV-I 1,3 C 51 % 93 % 37 % 1028,6 hPa 0,0 l/m 0,8 km/h (0 Bft) 0,00 h 1,4 km/h (1 Bft)
27.04.2010 09:00 18,0 C 10,4 C 0,9 UV-I 2,1 C 52 % 92 % 59 % 1029,0 hPa 0,0 l/m 1,4 km/h (1 Bft) 0,10 h 2,7 km/h (1 Bft)
27.04.2010 10:00 18,2 C 12,8 C 2,4 UV-I 5,3 C 52 % 85 % 99 % 1029,1 hPa 0,0 l/m 3,5 km/h (1 Bft) 0,90 h 5,5 km/h (1 Bft)
27.04.2010 11:00 18,5 C 15,2 C 3,0 UV-I 4,5 C 52 % 74 % 96 % 1029,5 hPa 0,0 l/m 3,2 km/h (1 Bft) 0,90 h 5,9 km/h (2 Bft)
27.04.2010 12:00 18,8 C 16,6 C 2,7 UV-I 3,0 C 51 % 68 % 83 % 1029,8 hPa 0,0 l/m 2,7 km/h (1 Bft) 0,50 h 4,4 km/h (1 Bft)
27.04.2010 13:00 19,6 C 18,2 C 5,6 UV-I 5,2 C 50 % 61 % 100 % 1030,0 hPa 0,0 l/m 2,9 km/h (1 Bft) 0,93 h 4,3 km/h (1 Bft)
27.04.2010 14:00 20,2 C 18,9 C 2,2 UV-I 1,4 C 48 % 54 % 41 % 1030,0 hPa 0,0 l/m 4,0 km/h (1 Bft) 0,07 h 6,5 km/h (2 Bft)
27.04.2010 15:00 20,9 C 19,3 C 7,0 UV-I 4,2 C 47 % 53 % 79 % 1030,5 hPa 0,0 l/m 3,6 km/h (1 Bft) 0,53 h 6,4 km/h (2 Bft)
27.04.2010 16:00 21,7 C 20,1 C 1,7 UV-I 1,3 C 44 % 49 % 35 % 1030,6 hPa 0,0 l/m 2,8 km/h (1 Bft) 0,13 h 4,1 km/h (1 Bft)
27.04.2010 17:00 21,8 C 20,4 C 3,4 UV-I 3,6 C 44 % 47 % 89 % 1030,1 hPa 0,0 l/m 2,3 km/h (1 Bft) 0,77 h 4,0 km/h (1 Bft)
27.04.2010 18:00 22,0 C 20,2 C 1,3 UV-I 1,1 C 43 % 45 % 30 % 1029,6 hPa 0,0 l/m 2,2 km/h (1 Bft) 0,00 h 3,3 km/h (1 Bft)
27.04.2010 19:00 21,5 C 19,1 C 0,2 UV-I 0,0 C 44 % 47 % 0 % 1028,8 hPa 0,0 l/m 1,1 km/h (0 Bft) 0,00 h 1,8 km/h (1 Bft)
27.04.2010 20:00 20,9 C 17,4 C 0,0 UV-I 0,0 C 45 % 56 % 0 % 1028,2 hPa 0,0 l/m 0,0 km/h (0 Bft) 0,00 h 0,0 km/h (0 Bft)
27.04.2010 21:00 20,3 C 15,1 C 0,0 UV-I 0,0 C 47 % 64 % 0 % 1028,4 hPa 0,0 l/m 0,0 km/h (0 Bft) 0,00 h 0,0 km/h (0 Bft)
27.04.2010 22:00 19,7 C 12,9 C 0,0 UV-I 0,0 C 48 % 71 % 0 % 1028,7 hPa 0,0 l/m 0,0 km/h (0 Bft) 0,00 h 0,0 km/h (0 Bft)
27.04.2010 23:00 19,3 C 11,5 C 0,0 UV-I 0,0 C 49 % 76 % 0 % 1028,6 hPa 0,0 l/m 0,0 km/h (0 Bft) 0,00 h 0,0 km/h (0 Bft)
28.04.2010 00:00 19,0 C 10,4 C 0,0 UV-I 0,0 C 50 % 80 % 0 % 1028,4 hPa 0,0 l/m 0,0 km/h (0 Bft) 0,00 h 0,0 km/h (0 Bft)
28.04.2010 01:00 18,8 C 9,9 C 0,0 UV-I 0,0 C 50 % 82 % 0 % 1028,2 hPa 0,0 l/m 0,0 km/h (0 Bft) 0,00 h 0,0 km/h (0 Bft)
28.04.2010 02:00 18,7 C 9,6 C 0,0 UV-I 0,0 C 51 % 85 % 0 % 1028,1 hPa 0,0 l/m 0,0 km/h (0 Bft) 0,00 h 0,0 km/h (0 Bft)
28.04.2010 03:00 18,6 C 9,1 C 0,0 UV-I 0,0 C 51 % 87 % 0 % 1027,6 hPa 0,0 l/m 0,0 km/h (0 Bft) 0,00 h 0,0 km/h (0 Bft)
28.04.2010 04:00 18,5 C 8,4 C 0,0 UV-I 0,0 C 51 % 87 % 0 % 1027,5 hPa 0,0 l/m 0,0 km/h (0 Bft) 0,00 h 0,0 km/h (0 Bft)
28.04.2010 05:00 18,3 C 7,8 C 0,0 UV-I 0,0 C 51 % 88 % 0 % 1027,3 hPa 0,0 l/m 0,1 km/h (0 Bft) 0,00 h 0,3 km/h (0 Bft)
28.04.2010 06:00 18,2 C 7,5 C 0,0 UV-I 0,0 C 52 % 89 % 0 % 1027,0 hPa 0,0 l/m 0,9 km/h (0 Bft) 0,00 h 1,7 km/h (1 Bft)
28.04.2010 07:00 18,0 C 7,8 C 0,2 UV-I 0,2 C 52 % 91 % 6 % 1026,8 hPa 0,0 l/m 3,6 km/h (1 Bft) 0,00 h 5,3 km/h (1 Bft)
28.04.2010 08:00 18,0 C 8,9 C 0,6 UV-I 1,1 C 52 % 90 % 31 % 1027,0 hPa 0,0 l/m 1,2 km/h (1 Bft) 0,00 h 2,2 km/h (1 Bft)
28.04.2010 09:00 18,2 C 11,1 C 1,3 UV-I 2,9 C 52 % 87 % 70 % 1026,9 hPa 0,0 l/m 2,8 km/h (1 Bft) 0,20 h 4,9 km/h (1 Bft)
28.04.2010 10:00 18,4 C 14,5 C 2,5 UV-I 6,8 C 52 % 77 % 100 % 1026,9 hPa 0,0 l/m 5,1 km/h (1 Bft) 1,00 h 8,2 km/h (2 Bft)
28.04.2010 11:00 18,6 C 18,3 C 5,6 UV-I 6,9 C 52 % 62 % 100 % 1026,5 hPa 0,0 l/m 4,7 km/h (1 Bft) 0,93 h 10,0 km/h (2 Bft)
28.04.2010 12:00 19,0 C 21,5 C 7,2 UV-I 4,8 C 51 % 49 % 100 % 1026,3 hPa 0,0 l/m 7,9 km/h (2 Bft) 0,83 h 12,5 km/h (3 Bft)
28.04.2010 13:00 20,0 C 23,7 C 9,0 UV-I 3,4 C 49 % 40 % 95 % 1026,0 hPa 0,0 l/m 8,6 km/h (2 Bft) 0,83 h 11,8 km/h (2 Bft)
28.04.2010 14:00 21,4 C 25,0 C 9,9 UV-I 3,2 C 45 % 37 % 89 % 1027,1 hPa 0,0 l/m 7,1 km/h (2 Bft) 0,57 h 9,4 km/h (2 Bft)
28.04.2010 15:00 22,7 C 25,8 C 8,5 UV-I 2,4 C 42 % 36 % 69 % 1026,8 hPa 0,0 l/m 6,8 km/h (2 Bft) 0,20 h 9,3 km/h (2 Bft)
28.04.2010 16:00 23,2 C 26,0 C 6,9 UV-I 1,9 C 41 % 35 % 53 % 1025,6 hPa 0,0 l/m 5,2 km/h (1 Bft) 0,00 h 6,9 km/h (2 Bft)
28.04.2010 17:00 23,7 C 26,0 C 3,9 UV-I 2,3 C 40 % 34 % 66 % 1025,0 hPa 0,0 l/m 5,4 km/h (1 Bft) 0,13 h 7,9 km/h (2 Bft)
28.04.2010 18:00 23,5 C 25,1 C 1,4 UV-I 0,4 C 40 % 35 % 11 % 1023,4 hPa 0,0 l/m 2,3 km/h (1 Bft) 0,00 h 2,7 km/h (1 Bft)
28.04.2010 19:00 22,8 C 23,7 C 0,2 UV-I 0,0 C 41 % 39 % 0 % 1021,7 hPa 0,0 l/m 0,4 km/h (0 Bft) 0,00 h 0,8 km/h (0 Bft)
28.04.2010 20:00 22,2 C 21,7 C 0,0 UV-I 0,0 C 43 % 46 % 0 % 1021,1 hPa 0,0 l/m 0,0 km/h (0 Bft) 0,00 h 0,0 km/h (0 Bft)
28.04.2010 21:00 21,6 C 19,2 C 0,0 UV-I 0,0 C 44 % 55 % 0 % 1020,8 hPa 0,0 l/m 0,0 km/h (0 Bft) 0,00 h 0,0 km/h (0 Bft)
28.04.2010 22:00 21,2 C 17,2 C 0,0 UV-I 0,0 C 46 % 61 % 0 % 1020,3 hPa 0,0 l/m 0,0 km/h (0 Bft) 0,00 h 0,0 km/h (0 Bft)
28.04.2010 23:00 20,9 C 16,0 C 0,0 UV-I 0,0 C 46 % 62 % 0 % 1019,9 hPa 0,0 l/m 1,0 km/h (0 Bft) 0,00 h 1,5 km/h (1 Bft)
29.04.2010 00:00 20,7 C 15,3 C 0,0 UV-I 0,0 C 47 % 63 % 0 % 1019,2 hPa 0,0 l/m 0,8 km/h (0 Bft) 0,00 h 1,8 km/h (1 Bft)
29.04.2010 01:00 20,5 C 14,4 C 0,0 UV-I 0,0 C 47 % 65 % 0 % 1018,6 hPa 0,0 l/m 1,1 km/h (0 Bft) 0,00 h 1,9 km/h (1 Bft)
29.04.2010 02:00 20,4 C 13,9 C 0,0 UV-I 0,0 C 47 % 67 % 0 % 1018,4 hPa 0,0 l/m 1,0 km/h (0 Bft) 0,00 h 2,1 km/h (1 Bft)
29.04.2010 03:00 20,3 C 13,7 C 0,0 UV-I 0,2 C 48 % 68 % 0 % 1017,7 hPa 0,0 l/m 0,8 km/h (0 Bft) 0,00 h 1,5 km/h (1 Bft)
29.04.2010 04:00 20,2 C 13,6 C 0,0 UV-I 0,0 C 48 % 70 % 0 % 1017,2 hPa 0,0 l/m 1,4 km/h (1 Bft) 0,00 h 2,4 km/h (1 Bft)
29.04.2010 05:00 20,1 C 13,4 C 0,0 UV-I 0,0 C 48 % 70 % 0 % 1016,6 hPa 0,0 l/m 0,3 km/h (0 Bft) 0,00 h 0,3 km/h (0 Bft)
29.04.2010 06:00 20,0 C 12,9 C 0,0 UV-I 0,0 C 49 % 72 % 0 % 1016,1 hPa 0,0 l/m 0,9 km/h (0 Bft) 0,00 h 2,1 km/h (1 Bft)
29.04.2010 07:00 19,8 C 12,7 C 0,1 UV-I 0,1 C 49 % 73 % 4 % 1015,9 hPa 0,0 l/m 3,3 km/h (1 Bft) 0,00 h 5,6 km/h (1 Bft)
29.04.2010 08:00 19,8 C 13,6 C 0,6 UV-I 1,0 C 49 % 73 % 29 % 1015,7 hPa 0,0 l/m 4,1 km/h (1 Bft) 0,00 h 7,5 km/h (2 Bft)
29.04.2010 09:00 19,9 C 15,2 C 1,1 UV-I 2,6 C 49 % 71 % 62 % 1015,4 hPa 0,0 l/m 5,7 km/h (1 Bft) 0,23 h 7,6 km/h (2 Bft)
29.04.2010 10:00 20,2 C 18,5 C 1,7 UV-I 6,5 C 50 % 64 % 100 % 1015,3 hPa 0,0 l/m 7,2 km/h (2 Bft) 1,00 h 9,8 km/h (2 Bft)
29.04.2010 11:00 20,5 C 22,8 C 6,3 UV-I 7,0 C 50 % 50 % 100 % 1014,5 hPa 0,0 l/m 5,6 km/h (1 Bft) 1,00 h 9,3 km/h (2 Bft)
29.04.2010 12:00 21,0 C 25,6 C 5,7 UV-I 4,3 C 48 % 37 % 98 % 1014,2 hPa 0,0 l/m 9,2 km/h (2 Bft) 1,00 h 15,2 km/h (3 Bft)
29.04.2010 13:00 21,6 C 26,4 C 5,4 UV-I 2,7 C 45 % 34 % 78 % 1013,9 hPa 0,0 l/m 10,7 km/h (2 Bft) 0,30 h 13,4 km/h (3 Bft)
29.04.2010 14:00 22,5 C 27,1 C 7,4 UV-I 3,3 C 42 % 32 % 93 % 1014,3 hPa 0,0 l/m 9,3 km/h (2 Bft) 0,80 h 11,5 km/h (2 Bft)
29.04.2010 15:00 23,8 C 27,9 C 8,8 UV-I 3,5 C 39 % 30 % 91 % 1014,4 hPa 0,0 l/m 8,4 km/h (2 Bft) 0,83 h 12,8 km/h (3 Bft)
29.04.2010 16:00 24,1 C 27,9 C 4,7 UV-I 1,7 C 39 % 30 % 48 % 1013,6 hPa 0,0 l/m 6,7 km/h (2 Bft) 0,00 h 9,2 km/h (2 Bft)
29.04.2010 17:00 23,9 C 27,7 C 1,8 UV-I 0,3 C 39 % 30 % 8 % 1012,0 hPa 0,0 l/m 4,3 km/h (1 Bft) 0,00 h 5,6 km/h (1 Bft)
29.04.2010 18:00 23,5 C 26,3 C 0,6 UV-I 0,1 C 40 % 35 % 3 % 1011,0 hPa 0,0 l/m 2,4 km/h (1 Bft) 0,00 h 3,9 km/h (1 Bft)
29.04.2010 19:00 23,1 C 25,3 C 0,1 UV-I 0,0 C 41 % 38 % 0 % 1010,1 hPa 0,0 l/m 0,6 km/h (0 Bft) 0,00 h 1,3 km/h (1 Bft)
29.04.2010 20:00 22,8 C 23,7 C 0,0 UV-I 0,0 C 44 % 44 % 0 % 1009,3 hPa 0,0 l/m 0,4 km/h (0 Bft) 0,00 h 1,2 km/h (1 Bft)
29.04.2010 21:00 22,4 C 22,2 C 0,0 UV-I 0,0 C 45 % 46 % 0 % 1008,9 hPa 0,0 l/m 2,2 km/h (1 Bft) 0,00 h 3,5 km/h (1 Bft)
29.04.2010 22:00 22,2 C 21,3 C 0,0 UV-I 0,0 C 45 % 47 % 0 % 1008,1 hPa 0,0 l/m 2,9 km/h (1 Bft) 0,00 h 4,2 km/h (1 Bft)
29.04.2010 23:00 22,0 C 20,5 C 0,0 UV-I 0,0 C 45 % 49 % 0 % 1007,1 hPa 0,0 l/m 7,0 km/h (2 Bft) 0,00 h 10,5 km/h (2 Bft)
30.04.2010 00:00 21,9 C 20,2 C 0,0 UV-I 0,0 C 46 % 52 % 0 % 1006,4 hPa 0,0 l/m 3,6 km/h (1 Bft) 0,00 h 5,9 km/h (2 Bft)
30.04.2010 01:00 21,9 C 20,1 C 0,0 UV-I 0,1 C 46 % 55 % 0 % 1005,6 hPa 0,0 l/m 5,5 km/h (1 Bft) 0,00 h 8,5 km/h (2 Bft)
30.04.2010 02:00 21,8 C 19,6 C 0,0 UV-I 0,0 C 48 % 61 % 0 % 1005,7 hPa 0,0 l/m 7,0 km/h (2 Bft) 0,00 h 10,7 km/h (2 Bft)
30.04.2010 03:00 21,7 C 18,6 C 0,0 UV-I 0,0 C 49 % 64 % 0 % 1006,4 hPa 0,0 l/m 6,9 km/h (2 Bft) 0,00 h 9,8 km/h (2 Bft)
30.04.2010 04:00 21,5 C 17,2 C 0,0 UV-I 0,0 C 51 % 71 % 0 % 1007,5 hPa 0,0 l/m 8,8 km/h (2 Bft) 0,00 h 13,8 km/h (3 Bft)
30.04.2010 05:00 21,2 C 15,6 C 0,0 UV-I 0,0 C 52 % 76 % 0 % 1008,6 hPa 0,0 l/m 8,9 km/h (2 Bft) 0,00 h 12,8 km/h (3 Bft)
30.04.2010 06:00 20,9 C 14,2 C 0,0 UV-I 0,0 C 52 % 78 % 0 % 1008,8 hPa 0,0 l/m 4,7 km/h (1 Bft) 0,00 h 7,5 km/h (2 Bft)
30.04.2010 07:00 20,8 C 13,9 C 0,3 UV-I 0,0 C 52 % 80 % 0 % 1009,4 hPa 0,0 l/m 6,6 km/h (2 Bft) 0,00 h 10,2 km/h (2 Bft)
30.04.2010 08:00 20,8 C 14,2 C 0,2 UV-I 0,3 C 52 % 77 % 9 % 1010,1 hPa 0,0 l/m 11,2 km/h (2 Bft) 0,00 h 18,0 km/h (3 Bft)
30.04.2010 09:00 20,6 C 14,1 C 1,0 UV-I 0,7 C 51 % 74 % 20 % 1010,6 hPa 0,0 l/m 11,0 km/h (2 Bft) 0,00 h 15,8 km/h (3 Bft)
30.04.2010 10:00 20,7 C 14,4 C 0,5 UV-I 0,4 C 50 % 72 % 12 % 1010,8 hPa 0,0 l/m 12,5 km/h (3 Bft) 0,00 h 16,0 km/h (3 Bft)
30.04.2010 11:00 20,7 C 14,6 C 1,2 UV-I 0,7 C 50 % 73 % 20 % 1011,3 hPa 0,0 l/m 10,8 km/h (2 Bft) 0,00 h 15,6 km/h (3 Bft)
30.04.2010 12:00 20,8 C 15,0 C 1,4 UV-I 0,8 C 50 % 71 % 24 % 1011,6 hPa 0,0 l/m 11,5 km/h (2 Bft) 0,00 h 17,0 km/h (3 Bft)
30.04.2010 13:00 21,1 C 16,4 C 4,4 UV-I 3,0 C 49 % 63 % 85 % 1011,3 hPa 0,0 l/m 13,6 km/h (3 Bft) 0,53 h 19,3 km/h (3 Bft)
30.04.2010 14:00 21,6 C 17,7 C 5,0 UV-I 2,6 C 47 % 54 % 75 % 1012,3 hPa 0,0 l/m 12,1 km/h (2 Bft) 0,20 h 16,4 km/h (3 Bft)
30.04.2010 15:00 22,1 C 17,9 C 4,7 UV-I 1,8 C 45 % 52 % 53 % 1012,8 hPa 0,0 l/m 10,8 km/h (2 Bft) 0,13 h 14,4 km/h (3 Bft)
30.04.2010 16:00 22,3 C 17,6 C 1,5 UV-I 0,8 C 43 % 53 % 22 % 1014,3 hPa 0,0 l/m 8,9 km/h (2 Bft) 0,03 h 11,8 km/h (2 Bft)
30.04.2010 17:00 22,0 C 16,8 C 0,9 UV-I 0,3 C 44 % 58 % 9 % 1012,6 hPa 0,0 l/m 7,3 km/h (2 Bft) 0,00 h 9,4 km/h (2 Bft)
30.04.2010 18:00 21,7 C 16,3 C 0,3 UV-I 0,2 C 45 % 59 % 5 % 1012,4 hPa 0,0 l/m 4,2 km/h (1 Bft) 0,00 h 4,5 km/h (1 Bft)
30.04.2010 19:00 21,3 C 15,8 C 0,0 UV-I 0,0 C 45 % 58 % 0 % 1012,1 hPa 0,0 l/m 2,6 km/h (1 Bft) 0,00 h 3,7 km/h (1 Bft)
30.04.2010 20:00 21,1 C 15,2 C 0,0 UV-I 0,0 C 46 % 59 % 0 % 1012,1 hPa 0,0 l/m 2,8 km/h (1 Bft) 0,00 h 4,1 km/h (1 Bft)
30.04.2010 21:00 20,6 C 13,9 C 0,0 UV-I 0,0 C 47 % 64 % 0 % 1012,5 hPa 0,0 l/m 0,3 km/h (0 Bft) 0,00 h 0,6 km/h (0 Bft)
30.04.2010 22:00 20,2 C 12,6 C 0,0 UV-I 0,0 C 48 % 71 % 0 % 1012,8 hPa 0,0 l/m 0,0 km/h (0 Bft) 0,00 h 0,0 km/h (0 Bft)
30.04.2010 23:00 19,9 C 11,2 C 0,0 UV-I 0,0 C 49 % 77 % 0 % 1012,4 hPa 0,0 l/m 0,0 km/h (0 Bft) 0,00 h 0,0 km/h (0 Bft)
01.05.2010 00:00 19,6 C 9,8 C 0,0 UV-I 0,0 C 50 % 81 % 0 % 1012,5 hPa 0,0 l/m 0,1 km/h (0 Bft) 0,00 h 1,1 km/h (1 Bft)
01.05.2010 01:00 19,5 C 9,8 C 0,0 UV-I 0,0 C 49 % 79 % 0 % 1012,5 hPa 0,0 l/m 0,4 km/h (0 Bft) 0,00 h 0,8 km/h (0 Bft)
01.05.2010 02:00 19,4 C 10,2 C 0,0 UV-I 0,0 C 49 % 75 % 0 % 1012,4 hPa 0,0 l/m 0,3 km/h (0 Bft) 0,00 h 1,6 km/h (1 Bft)
01.05.2010 03:00 19,4 C 10,4 C 0,0 UV-I 0,0 C 48 % 74 % 0 % 1012,0 hPa 0,0 l/m 0,5 km/h (0 Bft) 0,00 h 1,1 km/h (1 Bft)
01.05.2010 04:00 19,2 C 10,5 C 0,0 UV-I 0,0 C 48 % 73 % 0 % 1011,5 hPa 0,0 l/m 0,9 km/h (0 Bft) 0,00 h 2,0 km/h (1 Bft)
01.05.2010 05:00 19,2 C 10,2 C 0,0 UV-I 0,0 C 48 % 74 % 0 % 1011,4 hPa 0,0 l/m 0,9 km/h (0 Bft) 0,00 h 1,7 km/h (1 Bft)
01.05.2010 06:00 19,0 C 9,9 C 0,0 UV-I 0,0 C 48 % 75 % 0 % 1011,1 hPa 0,0 l/m 2,6 km/h (1 Bft) 0,00 h 5,1 km/h (1 Bft)
01.05.2010 07:00 18,9 C 10,1 C 0,2 UV-I 0,2 C 48 % 74 % 4 % 1011,3 hPa 0,0 l/m 2,7 km/h (1 Bft) 0,00 h 4,5 km/h (1 Bft)
01.05.2010 08:00 19,0 C 11,1 C 0,7 UV-I 0,9 C 48 % 72 % 25 % 1011,5 hPa 0,0 l/m 5,1 km/h (1 Bft) 0,00 h 9,3 km/h (2 Bft)
01.05.2010 09:00 19,1 C 12,4 C 1,0 UV-I 1,8 C 47 % 70 % 45 % 1011,8 hPa 0,0 l/m 8,7 km/h (2 Bft) 0,17 h 12,5 km/h (3 Bft)
01.05.2010 10:00 19,0 C 15,3 C 1,5 UV-I 4,9 C 48 % 61 % 95 % 1011,4 hPa 0,0 l/m 9,3 km/h (2 Bft) 0,83 h 14,2 km/h (3 Bft)
01.05.2010 11:00 19,2 C 16,5 C 11,1 UV-I 5,5 C 47 % 54 % 100 % 1011,1 hPa 0,0 l/m 8,3 km/h (2 Bft) 0,90 h 11,3 km/h (2 Bft)
01.05.2010 12:00 19,6 C 17,3 C 8,5 UV-I 4,6 C 45 % 50 % 99 % 1010,8 hPa 0,0 l/m 8,7 km/h (2 Bft) 1,00 h 12,4 km/h (3 Bft)
01.05.2010 13:00 20,2 C 18,6 C 8,7 UV-I 4,8 C 42 % 44 % 100 % 1010,8 hPa 0,0 l/m 10,2 km/h (2 Bft) 1,00 h 14,4 km/h (3 Bft)
01.05.2010 14:00 21,6 C 19,5 C 7,8 UV-I 4,5 C 40 % 42 % 96 % 1012,6 hPa 0,0 l/m 8,9 km/h (2 Bft) 0,87 h 13,0 km/h (3 Bft)
01.05.2010 15:00 22,1 C 18,7 C 5,5 UV-I 2,6 C 38 % 43 % 70 % 1011,8 hPa 0,0 l/m 8,6 km/h (2 Bft) 0,30 h 10,7 km/h (2 Bft)
01.05.2010 16:00 23,0 C 19,3 C 6,5 UV-I 2,9 C 36 % 40 % 80 % 1012,4 hPa 0,0 l/m 9,5 km/h (2 Bft) 0,60 h 14,0 km/h (3 Bft)
01.05.2010 17:00 22,7 C 17,1 C 3,5 UV-I 1,2 C 38 % 56 % 33 % 1011,8 hPa 0,0 l/m 14,1 km/h (3 Bft) 0,00 h 20,2 km/h (4 Bft)
01.05.2010 18:00 22,4 C 15,8 C 3,1 UV-I 0,8 C 40 % 60 % 23 % 1011,7 hPa 0,0 l/m 10,7 km/h (2 Bft) 0,00 h 15,8 km/h (3 Bft)
01.05.2010 19:00 21,9 C 14,5 C 0,8 UV-I 0,0 C 41 % 65 % 0 % 1011,6 hPa 0,0 l/m 9,0 km/h (2 Bft) 0,00 h 13,1 km/h (3 Bft)
01.05.2010 20:00 21,2 C 13,6 C 0,0 UV-I 0,0 C 42 % 67 % 0 % 1011,4 hPa 0,0 l/m 2,3 km/h (1 Bft) 0,00 h 2,9 km/h (1 Bft)
01.05.2010 21:00 20,7 C 12,5 C 0,0 UV-I 0,0 C 44 % 70 % 0 % 1012,1 hPa 0,0 l/m 0,0 km/h (0 Bft) 0,00 h 0,0 km/h (0 Bft)
01.05.2010 22:00 20,2 C 11,9 C 0,0 UV-I 0,0 C 45 % 74 % 0 % 1012,5 hPa 0,0 l/m 0,2 km/h (0 Bft) 0,00 h 0,4 km/h (0 Bft)
01.05.2010 23:00 19,9 C 11,7 C 0,0 UV-I 0,0 C 46 % 77 % 0 % 1012,5 hPa 0,0 l/m 0,2 km/h (0 Bft) 0,00 h 0,4 km/h (0 Bft)
02.05.2010 00:00 19,7 C 10,8 C 0,0 UV-I 0,0 C 47 % 80 % 0 % 1012,2 hPa 0,0 l/m 0,0 km/h (0 Bft) 0,00 h 0,0 km/h (0 Bft)
02.05.2010 01:00 19,4 C 9,6 C 0,0 UV-I 0,0 C 48 % 83 % 0 % 1012,0 hPa 0,0 l/m 0,0 km/h (0 Bft) 0,00 h 0,0 km/h (0 Bft)
02.05.2010 02:00 19,2 C 8,6 C 0,0 UV-I 0,0 C 48 % 86 % 0 % 1012,0 hPa 0,0 l/m 0,0 km/h (0 Bft) 0,00 h 0,0 km/h (0 Bft)
02.05.2010 03:00 19,2 C 8,1 C 0,0 UV-I 0,0 C 49 % 89 % 0 % 1011,9 hPa 0,0 l/m 0,0 km/h (0 Bft) 0,00 h 0,0 km/h (0 Bft)
02.05.2010 04:00 19,0 C 8,2 C 0,0 UV-I 0,0 C 49 % 89 % 0 % 1011,6 hPa 0,0 l/m 0,0 km/h (0 Bft) 0,00 h 0,0 km/h (0 Bft)
02.05.2010 05:00 19,0 C 8,6 C 0,0 UV-I 0,0 C 49 % 90 % 0 % 1011,0 hPa 0,0 l/m 0,0 km/h (0 Bft) 0,00 h 0,0 km/h (0 Bft)
02.05.2010 06:00 18,8 C 8,8 C 0,0 UV-I 0,0 C 50 % 90 % 0 % 1010,1 hPa 0,0 l/m 0,0 km/h (0 Bft) 0,00 h 0,0 km/h (0 Bft)
02.05.2010 07:00 18,8 C 9,3 C 0,0 UV-I 0,0 C 50 % 91 % 0 % 1009,9 hPa 0,2 l/m 0,8 km/h (0 Bft) 0,00 h 1,5 km/h (1 Bft)
02.05.2010 08:00 18,8 C 10,1 C 0,3 UV-I 0,0 C 51 % 90 % 0 % 1010,0 hPa 0,1 l/m 0,1 km/h (0 Bft) 0,00 h 0,0 km/h (0 Bft)
02.05.2010 09:00 18,9 C 10,7 C 0,6 UV-I 0,0 C 51 % 90 % 0 % 1010,3 hPa 0,3 l/m 0,5 km/h (0 Bft) 0,00 h 1,3 km/h (1 Bft)
02.05.2010 10:00 19,0 C 11,6 C 1,8 UV-I 0,4 C 52 % 90 % 10 % 1010,2 hPa 0,3 l/m 1,4 km/h (1 Bft) 0,00 h 3,8 km/h (1 Bft)
02.05.2010 11:00 19,2 C 12,7 C 2,8 UV-I 0,9 C 52 % 89 % 26 % 1010,3 hPa 0,1 l/m 3,1 km/h (1 Bft) 0,00 h 4,8 km/h (1 Bft)
02.05.2010 12:00 19,3 C 13,0 C 0,9 UV-I 0,2 C 52 % 85 % 6 % 1009,7 hPa 0,3 l/m 2,5 km/h (1 Bft) 0,00 h 3,9 km/h (1 Bft)
02.05.2010 13:00 19,2 C 12,4 C 2,4 UV-I 0,3 C 53 % 88 % 8 % 1009,0 hPa 5,2 l/m 1,8 km/h (1 Bft) 0,00 h 3,2 km/h (1 Bft)
02.05.2010 14:00 20,4 C 14,7 C 8,7 UV-I 5,4 C 52 % 84 % 100 % 1010,1 hPa 0,0 l/m 3,4 km/h (1 Bft) 0,90 h 5,4 km/h (1 Bft)
02.05.2010 15:00 21,7 C 14,3 C 3,6 UV-I 2,7 C 48 % 73 % 64 % 1010,1 hPa 0,6 l/m 6,0 km/h (2 Bft) 0,53 h 10,9 km/h (2 Bft)
02.05.2010 16:00 20,8 C 10,4 C 0,1 UV-I 0,0 C 48 % 86 % 0 % 1009,2 hPa 2,0 l/m 1,6 km/h (1 Bft) 0,00 h 2,0 km/h (1 Bft)
02.05.2010 17:00 19,9 C 10,8 C 1,7 UV-I 0,8 C 51 % 89 % 23 % 1008,4 hPa 0,1 l/m 1,1 km/h (1 Bft) 0,00 h 2,9 km/h (1 Bft)
02.05.2010 18:00 19,7 C 11,4 C 1,3 UV-I 0,7 C 52 % 89 % 19 % 1008,3 hPa 0,0 l/m 3,2 km/h (1 Bft) 0,00 h 5,0 km/h (1 Bft)
02.05.2010 19:00 19,5 C 10,1 C 0,1 UV-I 0,0 C 52 % 88 % 0 % 1008,5 hPa 1,8 l/m 2,7 km/h (1 Bft) 0,00 h 3,8 km/h (1 Bft)
02.05.2010 20:00 19,0 C 9,6 C 0,0 UV-I 0,0 C 53 % 90 % 0 % 1009,0 hPa 0,0 l/m 0,3 km/h (0 Bft) 0,00 h 0,5 km/h (0 Bft)
02.05.2010 21:00 18,8 C 9,6 C 0,0 UV-I 0,0 C 54 % 91 % 0 % 1009,2 hPa 0,5 l/m 1,7 km/h (1 Bft) 0,00 h 3,8 km/h (1 Bft)
02.05.2010 22:00 18,6 C 9,2 C 0,0 UV-I 0,0 C 54 % 90 % 0 % 1009,0 hPa 0,0 l/m 0,4 km/h (0 Bft) 0,00 h 0,7 km/h (0 Bft)
02.05.2010 23:00 18,4 C 8,4 C 0,0 UV-I 0,0 C 54 % 92 % 0 % 1009,0 hPa 0,0 l/m 0,3 km/h (0 Bft) 0,00 h 0,7 km/h (0 Bft)
Min-Datum _ 27.04.10 27.04.10 26.04.10 26.04.10 01.05.10 29.04.10 26.04.10 30.04.10 - 26.04.10 - 26.04.10
_ Min-Zeit 06:56 06:20 00:00 00:00 16:16 14:38 00:00 01:52 - 01:54 - 00:06
Minimum _ 17,8 C 6,1 C 0,0 UV-I 0,0 C 36 % 30 % 0 % 1005,2 hPa - 0,0 km/h (0 Bft) - 0,0 km/h (0 Bft)
Max-Datum _ 29.04.10 29.04.10 01.05.10 28.04.10 02.05.10 27.04.10 26.04.10 27.04.10 02.05.10 01.05.10 26.04.10 30.04.10
_ Max-Zeit 16:04 15:14 11:20 10:26 21:02 08:24 13:18 15:52 13:28 17:42 12:38 14:34
Maximum _ 24,2 C 28,0 C 14,6 UV-I 7,9 C 54 % 94 % 100 % 1031,8 hPa 5,2 l/m 18,9 km/h
W (3 Bft)
0,03 h 49,0 km/h
N-NO (6 Bft)
Durchschnitt _ 20,3 C 14,8 C 1,6 UV-I 1,1 C 48 % 69 % 25 % 1018,0 hPa #14,3 l/m 3,6 km/h (1 Bft) #25:10 h 5,4 km/h (1 Bft)
© 2012 W. Hausmann